createdAt,value
2022-08-07T00:00:40.214Z,21.29
2022-08-07T00:03:10.318Z,21.21
2022-08-07T00:05:39.156Z,21.37
2022-08-07T00:08:08.062Z,21.16
2022-08-07T00:10:48.024Z,21.50
2022-08-07T00:13:26.793Z,21.22
2022-08-07T00:15:55.649Z,21.20
2022-08-07T00:18:25.728Z,21.40
2022-08-07T00:20:55.197Z,21.11
2022-08-07T00:23:25.290Z,20.96
2022-08-07T00:26:02.807Z,21.27
2022-08-07T00:28:45.934Z,20.89
2022-08-07T00:31:37.679Z,20.99
2022-08-07T00:34:09.755Z,20.85
2022-08-07T00:36:42.658Z,20.83
2022-08-07T00:39:16.125Z,20.88
2022-08-07T00:41:53.277Z,21.38
2022-08-07T00:44:22.776Z,20.91
2022-08-07T00:46:55.634Z,20.76
2022-08-07T00:50:16.815Z,20.71
2022-08-07T00:52:12.588Z,20.86
2022-08-07T00:54:41.083Z,20.70
2022-08-07T00:57:12.265Z,21.17
2022-08-07T00:59:40.805Z,20.80
2022-08-07T01:02:20.313Z,21.04
2022-08-07T01:04:58.686Z,20.82
2022-08-07T01:07:28.465Z,21.02
2022-08-07T01:10:06.602Z,20.91
2022-08-07T01:12:54.149Z,21.36
2022-08-07T01:15:35.918Z,21.04
2022-08-07T01:18:16.976Z,20.95
2022-08-07T01:20:59.209Z,21.27
2022-08-07T01:23:37.982Z,21.24
2022-08-07T01:26:12.060Z,21.07
2022-08-07T01:28:41.109Z,20.89
2022-08-07T01:31:15.502Z,20.93
2022-08-07T01:33:55.251Z,20.76
2022-08-07T01:36:34.066Z,20.86
2022-08-07T01:39:10.247Z,21.15
2022-08-07T01:41:39.086Z,20.77
2022-08-07T01:44:09.391Z,20.79
2022-08-07T01:46:38.996Z,20.95
2022-08-07T01:49:08.459Z,20.68
2022-08-07T01:52:04.166Z,21.08
2022-08-07T01:54:36.343Z,20.94
2022-08-07T01:57:08.364Z,21.02
2022-08-07T01:59:44.084Z,21.12
2022-08-07T02:03:11.455Z,21.00
2022-08-07T02:05:08.057Z,20.86
2022-08-07T02:07:50.591Z,20.80
2022-08-07T02:10:26.955Z,21.00
2022-08-07T02:12:57.101Z,20.73
2022-08-07T02:15:29.339Z,20.72
2022-08-07T02:17:59.929Z,20.59
2022-08-07T02:20:28.765Z,20.61
2022-08-07T02:22:59.731Z,20.76
2022-08-07T02:26:10.658Z,20.83
2022-08-07T02:28:25.442Z,21.45
2022-08-07T02:30:56.697Z,20.64
2022-08-07T02:33:42.019Z,20.66
2022-08-07T02:36:30.214Z,20.38
2022-08-07T02:39:01.833Z,20.36
2022-08-07T02:41:40.094Z,20.65
2022-08-07T02:44:16.771Z,20.48
2022-08-07T02:46:52.503Z,20.41
2022-08-07T02:49:28.641Z,20.18
2022-08-07T02:52:13.036Z,20.78
2022-08-07T02:54:42.903Z,20.60
2022-08-07T02:57:17.413Z,20.73
2022-08-07T02:59:54.799Z,20.44
2022-08-07T03:02:29.595Z,20.17
2022-08-07T03:04:58.014Z,20.13
2022-08-07T03:07:42.931Z,20.31
2022-08-07T03:10:17.042Z,20.26
2022-08-07T03:12:48.154Z,20.55
2022-08-07T03:15:30.286Z,20.21
2022-08-07T03:18:08.291Z,20.09
2022-08-07T03:20:37.323Z,20.18
2022-08-07T03:23:05.897Z,20.39
2022-08-07T03:25:50.766Z,20.36
2022-08-07T03:28:37.479Z,20.46
2022-08-07T03:31:24.464Z,21.20
2022-08-07T03:33:57.578Z,20.45
2022-08-07T03:36:27.785Z,20.19
2022-08-07T03:39:05.424Z,20.37
2022-08-07T03:41:42.126Z,20.04
2022-08-07T03:44:17.110Z,20.37
2022-08-07T03:47:11.274Z,20.16
2022-08-07T03:49:40.029Z,20.30
2022-08-07T03:52:22.952Z,20.45
2022-08-07T03:54:57.450Z,20.20
2022-08-07T03:59:04.868Z,20.45
2022-08-07T04:00:30.560Z,20.97
2022-08-07T04:03:03.946Z,20.61
2022-08-07T04:05:40.292Z,20.86
2022-08-07T04:08:11.572Z,21.19
2022-08-07T04:10:42.349Z,21.14
2022-08-07T04:13:15.383Z,21.52
2022-08-07T04:15:45.753Z,21.68
2022-08-07T04:18:58.697Z,21.33
2022-08-07T04:21:07.424Z,21.65
2022-08-07T04:23:43.472Z,21.98
2022-08-07T04:26:25.174Z,21.98
2022-08-07T04:28:58.577Z,22.32
2022-08-07T04:31:38.787Z,22.99
2022-08-07T04:34:24.087Z,23.16
2022-08-07T04:37:01.370Z,23.00
2022-08-07T04:39:35.920Z,23.29
2022-08-07T04:42:04.998Z,23.19
2022-08-07T04:44:34.516Z,22.64
2022-08-07T04:47:09.642Z,22.74
2022-08-07T04:49:57.398Z,22.17
2022-08-07T04:52:33.763Z,21.98
2022-08-07T04:55:15.000Z,21.68
2022-08-07T04:58:10.817Z,21.93
2022-08-07T05:00:53.103Z,22.50
2022-08-07T05:03:59.957Z,22.72
2022-08-07T05:06:20.434Z,22.93
2022-08-07T05:09:01.654Z,23.24
2022-08-07T05:11:56.862Z,23.41
2022-08-07T05:14:56.077Z,23.31
2022-08-07T05:17:51.466Z,23.47
2022-08-07T05:20:10.000Z,24.07
2022-08-07T05:22:40.124Z,24.51
2022-08-07T05:25:11.696Z,24.59
2022-08-07T05:28:03.337Z,25.00
2022-08-07T05:30:48.555Z,26.04
2022-08-07T05:33:17.975Z,26.78
2022-08-07T05:35:48.209Z,27.43
2022-08-07T05:39:00.907Z,27.36
2022-08-07T05:41:14.290Z,26.83
2022-08-07T05:44:07.671Z,27.26
2022-08-07T05:46:34.924Z,27.60
2022-08-07T05:49:12.172Z,27.88
2022-08-07T05:51:43.036Z,28.20
2022-08-07T05:54:31.007Z,28.65
2022-08-07T05:57:04.525Z,30.09
2022-08-07T05:59:46.546Z,31.02
2022-08-07T06:02:28.753Z,31.07
2022-08-07T06:05:00.738Z,31.44
2022-08-07T06:08:09.002Z,31.90
2022-08-07T06:10:19.092Z,31.57
2022-08-07T06:12:49.023Z,31.65
2022-08-07T06:15:20.072Z,32.34
2022-08-07T06:17:53.606Z,32.85
2022-08-07T06:20:31.998Z,32.94
2022-08-07T06:23:46.068Z,33.04
2022-08-07T06:26:03.767Z,34.42
2022-08-07T06:28:32.375Z,35.35
2022-08-07T06:31:01.435Z,36.12
2022-08-07T06:33:33.069Z,38.11
2022-08-07T06:36:06.889Z,37.60
2022-08-07T06:38:59.352Z,38.74
2022-08-07T06:42:00.940Z,39.44
2022-08-07T06:44:31.076Z,39.85
2022-08-07T06:47:10.222Z,39.73
2022-08-07T06:49:50.990Z,40.80
2022-08-07T06:52:31.765Z,40.52
2022-08-07T06:55:32.248Z,41.06
2022-08-07T06:58:02.060Z,40.78
2022-08-07T07:00:34.944Z,40.06
2022-08-07T07:03:08.873Z,37.89
2022-08-07T07:06:03.766Z,36.32
2022-08-07T07:08:28.749Z,36.90
2022-08-07T07:10:58.956Z,36.48
2022-08-07T07:13:56.131Z,35.50
2022-08-07T07:16:23.588Z,34.64
2022-08-07T07:19:00.416Z,34.06
2022-08-07T07:22:12.268Z,33.95
2022-08-07T07:24:30.317Z,35.88
2022-08-07T07:27:02.768Z,38.69
2022-08-07T07:29:39.485Z,40.59
2022-08-07T07:32:26.526Z,42.15
2022-08-07T07:34:57.979Z,42.60
2022-08-07T07:37:47.215Z,40.00
2022-08-07T07:40:18.102Z,38.93
2022-08-07T07:42:53.748Z,39.28
2022-08-07T07:46:35.781Z,38.57
2022-08-07T07:48:35.116Z,37.77
2022-08-07T07:51:03.312Z,35.81
2022-08-07T07:53:52.021Z,34.32
2022-08-07T07:56:30.266Z,32.85
2022-08-07T07:59:02.096Z,32.32
2022-08-07T08:02:02.047Z,31.53
2022-08-07T08:04:25.556Z,30.96
2022-08-07T08:06:54.860Z,30.63
2022-08-07T08:09:29.631Z,30.78
2022-08-07T08:12:01.913Z,30.57
2022-08-07T08:14:39.828Z,30.55
2022-08-07T08:17:55.497Z,30.15
2022-08-07T08:20:18.824Z,29.99
2022-08-07T08:23:09.337Z,29.47
2022-08-07T08:25:57.269Z,29.30
2022-08-07T08:28:37.889Z,28.90
2022-08-07T08:31:16.208Z,29.25
2022-08-07T08:33:49.459Z,28.00
2022-08-07T08:36:29.588Z,27.87
2022-08-07T08:39:01.892Z,27.46
2022-08-07T08:41:57.781Z,27.71
2022-08-07T08:44:31.309Z,27.30
2022-08-07T08:47:07.676Z,27.30
2022-08-07T08:50:02.224Z,27.33
2022-08-07T08:52:40.793Z,27.75
2022-08-07T08:55:55.184Z,27.91
2022-08-07T08:58:20.311Z,27.35
2022-08-07T09:00:57.642Z,26.90
2022-08-07T09:03:49.503Z,26.98
2022-08-07T09:06:31.016Z,27.40
2022-08-07T09:09:09.453Z,27.73
2022-08-07T09:11:53.219Z,27.75
2022-08-07T09:14:32.636Z,27.34
2022-08-07T09:17:04.278Z,26.47
2022-08-07T09:19:52.601Z,26.80
2022-08-07T09:24:30.559Z,27.01
2022-08-07T09:25:26.374Z,26.72
2022-08-07T09:28:02.878Z,25.69
2022-08-07T09:30:44.257Z,24.94
2022-08-07T09:33:52.499Z,24.52
2022-08-07T09:36:27.003Z,24.79
2022-08-07T09:39:06.272Z,24.74
2022-08-07T09:42:05.648Z,24.28
2022-08-07T09:44:58.764Z,24.13
2022-08-07T09:47:58.943Z,24.16
2022-08-07T09:50:37.800Z,24.50
2022-08-07T09:53:12.709Z,24.99
2022-08-07T09:56:03.674Z,25.08
2022-08-07T09:59:07.799Z,25.64
2022-08-07T10:02:00.107Z,26.11
2022-08-07T10:04:38.149Z,25.99
2022-08-07T10:07:26.180Z,26.44
2022-08-07T10:10:21.965Z,27.44
2022-08-07T10:13:00.838Z,29.23
2022-08-07T10:15:44.792Z,32.26
2022-08-07T10:18:27.550Z,33.01
2022-08-07T10:21:19.837Z,33.94
2022-08-07T10:24:18.708Z,36.26
2022-08-07T10:27:10.462Z,39.81
2022-08-07T10:29:53.262Z,40.88
2022-08-07T10:32:51.111Z,39.58
2022-08-07T10:35:56.281Z,36.42
2022-08-07T10:38:36.003Z,35.33
2022-08-07T10:41:51.790Z,35.17
2022-08-07T10:44:19.549Z,36.39
2022-08-07T10:47:14.107Z,38.59
2022-08-07T10:49:50.911Z,38.44
2022-08-07T10:52:33.637Z,34.82
2022-08-07T10:55:26.784Z,32.55
2022-08-07T10:58:12.088Z,35.48
2022-08-07T11:00:50.189Z,39.76
2022-08-07T11:03:37.720Z,42.64
2022-08-07T11:06:18.192Z,43.37
2022-08-07T11:08:51.852Z,41.84
2022-08-07T11:11:25.933Z,39.83
2022-08-07T11:14:44.103Z,37.02
2022-08-07T11:16:56.852Z,34.06
2022-08-07T11:19:34.548Z,32.86
2022-08-07T11:22:18.756Z,31.95
2022-08-07T11:24:52.471Z,32.15
2022-08-07T11:27:33.435Z,31.29
2022-08-07T11:30:18.341Z,30.07
2022-08-07T11:32:53.752Z,29.03
2022-08-07T11:35:25.219Z,28.02
2022-08-07T11:38:12.416Z,27.65
2022-08-07T11:40:50.732Z,27.00
2022-08-07T11:43:41.526Z,26.95
2022-08-07T11:46:19.745Z,27.99
2022-08-07T11:50:11.484Z,28.17
2022-08-07T11:52:35.525Z,28.44
2022-08-07T11:55:18.730Z,28.09
2022-08-07T11:58:05.183Z,27.35
2022-08-07T12:01:02.481Z,26.69
2022-08-07T12:03:48.884Z,26.81
2022-08-07T12:06:37.358Z,27.27
2022-08-07T12:09:16.555Z,27.28
2022-08-07T12:12:10.471Z,26.90
2022-08-07T12:14:55.747Z,26.58
2022-08-07T12:17:58.443Z,26.54
2022-08-07T12:20:32.496Z,25.80
2022-08-07T12:23:37.187Z,26.41
2022-08-07T12:26:23.403Z,26.02
2022-08-07T12:29:04.910Z,26.32
2022-08-07T12:31:52.920Z,26.31
2022-08-07T12:34:29.757Z,26.27
2022-08-07T12:36:59.445Z,25.69
2022-08-07T12:39:44.302Z,25.91
2022-08-07T12:42:27.889Z,26.13
2022-08-07T12:44:59.638Z,25.96
2022-08-07T12:47:41.848Z,25.94
2022-08-07T12:50:38.420Z,26.87
2022-08-07T12:53:18.062Z,26.31
2022-08-07T12:56:02.437Z,26.70
2022-08-07T12:58:35.840Z,26.60
2022-08-07T13:01:09.613Z,26.43
2022-08-07T13:04:02.505Z,26.96
2022-08-07T13:07:01.186Z,27.10
2022-08-07T13:10:20.930Z,27.35
2022-08-07T13:12:47.550Z,27.59
2022-08-07T13:15:29.569Z,27.52
2022-08-07T13:18:11.580Z,28.52
2022-08-07T13:21:03.817Z,29.58
2022-08-07T13:24:01.138Z,29.84
2022-08-07T13:26:37.055Z,28.55
2022-08-07T13:29:13.176Z,27.47
2022-08-07T13:31:46.120Z,27.02
2022-08-07T13:34:36.946Z,26.69
2022-08-07T13:37:10.800Z,26.98
2022-08-07T13:40:36.127Z,26.58
2022-08-07T13:42:45.258Z,25.59
2022-08-07T13:46:07.095Z,25.93
2022-08-07T13:48:08.787Z,25.89
2022-08-07T13:50:45.013Z,27.14
2022-08-07T13:53:35.928Z,27.08
2022-08-07T13:56:35.831Z,26.91
2022-08-07T13:59:15.717Z,27.58
2022-08-07T14:02:04.138Z,28.40
2022-08-07T14:04:35.619Z,28.03
2022-08-07T14:07:09.551Z,27.70
2022-08-07T14:10:02.249Z,26.96
2022-08-07T14:12:41.662Z,27.42
2022-08-07T14:15:23.683Z,27.53
2022-08-07T14:18:23.990Z,27.49
2022-08-07T14:20:48.955Z,27.38
2022-08-07T14:23:59.148Z,27.13
2022-08-07T14:26:28.125Z,27.47
2022-08-07T14:29:07.286Z,27.02
2022-08-07T14:31:55.997Z,27.21
2022-08-07T14:37:18.869Z,26.81
2022-08-07T14:40:17.847Z,26.80
2022-08-07T14:43:00.955Z,26.22
2022-08-07T14:45:48.675Z,26.41
2022-08-07T14:51:15.856Z,27.05
2022-08-07T14:54:08.850Z,26.92
2022-08-07T14:56:35.266Z,27.12
2022-08-07T14:59:13.925Z,27.30
2022-08-07T15:01:54.647Z,28.48
2022-08-07T15:04:28.862Z,27.73
2022-08-07T15:15:34.256Z,28.94
2022-08-07T15:18:14.535Z,28.95
2022-08-07T15:20:59.834Z,27.60
2022-08-07T15:25:14.759Z,26.74
2022-08-07T15:26:33.631Z,25.93
2022-08-07T15:30:04.495Z,25.63
2022-08-07T15:32:01.161Z,25.73
2022-08-07T15:34:35.309Z,25.81
2022-08-07T15:37:06.878Z,25.63
2022-08-07T15:42:51.751Z,25.89
2022-08-07T15:45:56.466Z,25.65
2022-08-07T15:48:26.682Z,25.64
2022-08-07T15:51:09.204Z,25.94
2022-08-07T15:53:53.269Z,25.83
2022-08-07T15:56:33.205Z,26.30
2022-08-07T15:59:05.691Z,26.48
2022-08-07T16:01:38.536Z,26.37
2022-08-07T16:04:14.789Z,26.17
2022-08-07T16:06:46.642Z,26.28
2022-08-07T16:09:22.791Z,25.61
2022-08-07T16:12:04.821Z,25.73
2022-08-07T16:14:55.348Z,25.77
2022-08-07T16:18:02.337Z,25.77
2022-08-07T16:20:55.204Z,25.87
2022-08-07T16:23:58.509Z,24.91
2022-08-07T16:26:36.506Z,25.23
2022-08-07T16:30:07.247Z,25.41
2022-08-07T16:32:07.552Z,24.81
2022-08-07T16:34:58.473Z,25.20
2022-08-07T16:38:06.696Z,25.20
2022-08-07T16:41:11.593Z,25.44
2022-08-07T16:44:46.046Z,25.57
2022-08-07T16:47:52.921Z,25.30
2022-08-07T16:50:52.736Z,25.63
2022-08-07T16:54:06.172Z,25.54
2022-08-07T16:56:53.479Z,25.63
2022-08-07T16:59:46.055Z,25.61
2022-08-07T17:02:53.112Z,26.05
2022-08-07T17:06:28.176Z,25.95
2022-08-07T17:09:09.442Z,25.89
2022-08-07T17:12:04.375Z,25.67
2022-08-07T17:14:25.211Z,25.68
2022-08-07T17:16:57.724Z,25.58
2022-08-07T17:20:01.936Z,25.70
2022-08-07T17:22:37.814Z,25.66
2022-08-07T17:25:15.573Z,25.23
2022-08-07T17:27:56.019Z,25.25
2022-08-07T17:30:26.653Z,25.12
2022-08-07T17:33:03.667Z,25.61
2022-08-07T17:35:54.756Z,24.95
2022-08-07T17:38:34.303Z,25.11
2022-08-07T17:42:01.093Z,25.03
2022-08-07T17:44:07.403Z,25.17
2022-08-07T17:46:43.541Z,25.09
2022-08-07T17:49:22.983Z,25.25
2022-08-07T17:52:00.453Z,25.11
2022-08-07T17:54:40.065Z,24.89
2022-08-07T17:57:32.082Z,24.68
2022-08-07T18:00:32.894Z,24.70
2022-08-07T18:03:09.566Z,24.80
2022-08-07T18:06:02.357Z,24.77
2022-08-07T18:08:34.337Z,24.53
2022-08-07T18:12:07.414Z,24.71
2022-08-07T18:14:01.636Z,24.61
2022-08-07T18:16:34.312Z,24.52
2022-08-07T18:21:08.044Z,24.61
2022-08-07T18:22:14.887Z,24.53
2022-08-07T18:24:47.109Z,24.08
2022-08-07T18:27:58.173Z,24.45
2022-08-07T18:30:36.626Z,23.89
2022-08-07T18:33:30.506Z,23.99
2022-08-07T18:36:08.152Z,23.65
2022-08-07T18:38:58.986Z,23.68
2022-08-07T18:41:45.941Z,23.58
2022-08-07T18:44:30.841Z,23.62
2022-08-07T18:47:07.394Z,23.54
2022-08-07T18:50:19.122Z,23.42
2022-08-07T18:52:56.979Z,23.46
2022-08-07T18:55:43.136Z,23.44
2022-08-07T18:58:30.803Z,23.21
2022-08-07T19:01:07.099Z,23.30
2022-08-07T19:04:00.421Z,23.07
2022-08-07T19:06:41.148Z,23.16
2022-08-07T19:09:57.741Z,22.90
2022-08-07T19:12:19.181Z,23.03
2022-08-07T19:16:03.819Z,23.14
2022-08-07T19:18:15.715Z,22.84
2022-08-07T19:21:08.428Z,22.83
2022-08-07T19:23:58.395Z,22.78
2022-08-07T19:26:55.494Z,22.98
2022-08-07T19:31:04.456Z,22.71
2022-08-07T19:32:28.968Z,22.38
2022-08-07T19:35:05.134Z,22.42
2022-08-07T19:37:56.447Z,22.45
2022-08-07T19:40:31.151Z,22.27
2022-08-07T19:43:02.658Z,22.23
2022-08-07T19:46:09.298Z,22.24
2022-08-07T19:48:26.786Z,22.26
2022-08-07T19:50:58.111Z,22.09
2022-08-07T19:54:32.248Z,21.70
2022-08-07T19:58:00.891Z,21.80
2022-08-07T19:59:11.893Z,22.14
2022-08-07T20:01:57.371Z,22.14
2022-08-07T20:04:32.177Z,21.99
2022-08-07T20:07:10.128Z,22.03
2022-08-07T20:10:33.906Z,22.02
2022-08-07T20:12:34.874Z,21.77
2022-08-07T20:15:05.301Z,21.63
2022-08-07T20:17:45.087Z,21.60
2022-08-07T20:20:30.627Z,21.55
2022-08-07T20:23:10.709Z,21.61
2022-08-07T20:25:52.968Z,21.53
2022-08-07T20:28:29.582Z,21.03
2022-08-07T20:30:58.542Z,21.08
2022-08-07T20:33:37.674Z,21.35
2022-08-07T20:36:08.272Z,21.27
2022-08-07T20:38:59.826Z,21.08
2022-08-07T20:41:33.859Z,21.16
2022-08-07T20:44:03.398Z,21.08
2022-08-07T20:46:44.151Z,20.93
2022-08-07T20:49:59.672Z,21.68
2022-08-07T20:52:06.633Z,20.63
2022-08-07T20:54:53.326Z,20.70
2022-08-07T20:57:25.158Z,20.91
2022-08-07T21:00:07.010Z,20.66
2022-08-07T21:02:57.783Z,20.75
2022-08-07T21:05:51.019Z,20.86
2022-08-07T21:08:32.411Z,21.64
2022-08-07T21:11:12.440Z,21.02
2022-08-07T21:14:16.835Z,21.13
2022-08-07T21:16:56.404Z,21.05
2022-08-07T21:19:32.006Z,20.79
2022-08-07T21:22:19.477Z,20.67
2022-08-07T21:25:04.758Z,21.22
2022-08-07T21:28:02.218Z,21.16
2022-08-07T21:30:41.817Z,21.06
2022-08-07T21:33:16.549Z,20.97
2022-08-07T21:36:04.176Z,20.69
2022-08-07T21:38:45.405Z,20.93
2022-08-07T21:41:22.912Z,20.65
2022-08-07T21:43:58.525Z,20.72
2022-08-07T21:46:34.584Z,20.61
2022-08-07T21:49:15.005Z,20.71
2022-08-07T21:51:55.680Z,20.61
2022-08-07T21:54:30.872Z,20.63
2022-08-07T21:57:30.951Z,20.82
2022-08-07T22:00:09.214Z,20.48
2022-08-07T22:02:56.760Z,20.51
2022-08-07T22:05:46.098Z,20.40
2022-08-07T22:08:19.696Z,20.35
2022-08-07T22:10:50.966Z,20.35
2022-08-07T22:13:24.330Z,20.01
2022-08-07T22:16:45.609Z,20.32
2022-08-07T22:19:07.463Z,20.10
2022-08-07T22:22:05.410Z,20.21
2022-08-07T22:24:35.781Z,20.40
2022-08-07T22:27:10.402Z,20.26
2022-08-07T22:29:50.209Z,20.28
2022-08-07T22:32:25.867Z,20.37
2022-08-07T22:34:55.143Z,19.97
2022-08-07T22:38:04.364Z,20.31
2022-08-07T22:40:24.686Z,20.30
2022-08-07T22:42:55.463Z,20.02
2022-08-07T22:46:21.241Z,20.28
2022-08-07T22:48:55.310Z,20.40
2022-08-07T22:51:44.118Z,20.53
2022-08-07T22:54:49.185Z,20.48
2022-08-07T22:57:41.112Z,20.53
2022-08-07T23:00:16.357Z,20.49
2022-08-07T23:02:58.841Z,20.54
2022-08-07T23:06:14.999Z,20.50
2022-08-07T23:10:04.248Z,20.51
2022-08-07T23:12:07.477Z,20.26
2022-08-07T23:14:48.480Z,20.16
2022-08-07T23:17:45.186Z,20.40
2022-08-07T23:20:53.143Z,20.28
2022-08-07T23:24:05.740Z,20.15
2022-08-07T23:26:23.485Z,19.81
2022-08-07T23:29:03.199Z,20.12
2022-08-07T23:34:23.455Z,20.04
2022-08-07T23:35:07.414Z,20.29
2022-08-07T23:38:09.371Z,20.18
2022-08-07T23:40:47.024Z,19.99
2022-08-07T23:43:45.051Z,20.26
2022-08-07T23:46:33.851Z,20.04
2022-08-07T23:49:20.700Z,19.96
2022-08-07T23:52:59.792Z,19.64
2022-08-07T23:54:52.071Z,19.65
2022-08-07T23:57:27.731Z,19.75
